Time;durP1;ratioP1;P1;durP2;ratioP2;P2;SDS_P1;SDS_P2;PMS_P1;PMS_P2;Temp;Humidity;BMP_temperature;BMP_pressure;BME280_temperature;BME280_humidity;BME280_pressure;Samples;Min_cycle;Max_cycle;Signal;HPM_P1;HPM_P2
2023/09/05 00:02:21;;;;;;;5.13;3.42;;;18.80;68.50;;;;;;9176615;19;20064;-64
2023/09/05 00:05:32;;;;;;;6.47;3.20;;;18.80;68.70;;;;;;9176717;19;20011;-63
2023/09/05 00:08:37;;;;;;;4.65;2.88;;;18.80;68.80;;;;;;9178710;19;20516;-65
2023/09/05 00:11:45;;;;;;;8.68;2.97;;;18.70;68.70;;;;;;9180273;19;20007;-64
2023/09/05 00:14:50;;;;;;;5.85;3.08;;;18.70;68.90;;;;;;9179649;19;20014;-64
2023/09/05 00:17:58;;;;;;;5.55;3.33;;;18.70;68.90;;;;;;9179071;19;20018;-64
2023/09/05 00:21:07;;;;;;;8.43;2.97;;;18.70;68.90;;;;;;9176110;19;20006;-65
2023/09/05 00:24:32;;;;;;;5.53;3.22;;;18.60;69.10;;;;;;9177392;19;20015;-65
2023/09/05 00:27:39;;;;;;;6.65;3.15;;;18.60;69.20;;;;;;9173640;19;20025;-66
2023/09/05 00:30:47;;;;;;;10.75;3.60;;;18.60;69.20;;;;;;9179176;19;20025;-63
2023/09/05 00:33:53;;;;;;;5.60;3.67;;;18.60;69.20;;;;;;9178704;19;20471;-64
2023/09/05 00:37:03;;;;;;;6.25;2.97;;;18.50;69.20;;;;;;9177152;19;20018;-64
2023/09/05 00:40:15;;;;;;;19.17;3.60;;;18.50;69.30;;;;;;9177927;19;20014;-64
2023/09/05 00:43:23;;;;;;;5.50;3.45;;;18.50;69.30;;;;;;9178326;19;20113;-63
2023/09/05 00:46:29;;;;;;;4.72;3.33;;;18.50;69.40;;;;;;9179177;19;20360;-63
2023/09/05 00:49:47;;;;;;;5.63;3.67;;;18.40;69.40;;;;;;9177492;19;20022;-64
2023/09/05 00:52:56;;;;;;;5.75;3.20;;;18.40;69.50;;;;;;9177802;19;20019;-64
2023/09/05 00:56:03;;;;;;;6.80;3.15;;;18.40;69.60;;;;;;9178532;19;20010;-65
2023/09/05 00:59:09;;;;;;;5.57;3.20;;;18.40;69.60;;;;;;9179011;19;20022;-65
2023/09/05 01:02:16;;;;;;;6.78;3.30;;;18.40;69.70;;;;;;9177263;19;20022;-63
2023/09/05 01:05:23;;;;;;;6.05;3.08;;;18.30;69.80;;;;;;9176864;19;20015;-63
2023/09/05 01:08:44;;;;;;;5.95;3.33;;;18.30;70.40;;;;;;9177243;19;20015;-64
2023/09/05 01:11:50;;;;;;;5.45;3.30;;;18.30;69.90;;;;;;9177721;19;20014;-63
2023/09/05 01:14:57;;;;;;;5.28;3.63;;;18.30;69.90;;;;;;9181173;19;20022;-63
2023/09/05 01:18:03;;;;;;;5.88;3.33;;;18.30;69.90;;;;;;9187882;19;20018;-66
2023/09/05 01:21:22;;;;;;;6.82;3.47;;;18.20;69.90;;;;;;9185004;19;20014;-68
2023/09/05 01:24:35;;;;;;;6.15;3.97;;;18.20;70.20;;;;;;9185521;19;20987;-66
2023/09/05 01:27:43;;;;;;;6.95;3.25;;;18.20;70.10;;;;;;9180379;19;20010;-66
2023/09/05 01:30:53;;;;;;;6.72;3.80;;;18.10;70.10;;;;;;9186031;19;20014;-67
2023/09/05 01:34:01;;;;;;;5.28;3.03;;;18.10;70.10;;;;;;9184237;19;20341;-68
2023/09/05 01:37:10;;;;;;;7.07;3.67;;;18.10;70.10;;;;;;9182869;19;20022;-68
2023/09/05 01:40:22;;;;;;;5.65;3.20;;;18.00;70.20;;;;;;9186009;19;20479;-68
2023/09/05 01:43:27;;;;;;;6.20;3.25;;;18.00;70.30;;;;;;9184805;19;20370;-68
2023/09/05 01:46:34;;;;;;;5.45;3.63;;;18.00;70.30;;;;;;9184497;19;20011;-66
2023/09/05 01:49:40;;;;;;;6.50;3.88;;;18.00;70.40;;;;;;9180752;19;20139;-66
2023/09/05 01:52:47;;;;;;;5.65;3.78;;;17.90;70.40;;;;;;9183911;19;20015;-67
2023/09/05 01:55:57;;;;;;;5.22;3.47;;;17.90;70.50;;;;;;9186118;19;20025;-67
2023/09/05 01:59:05;;;;;;;5.47;3.72;;;17.90;70.60;;;;;;9186506;19;20015;-67
2023/09/05 02:02:10;;;;;;;6.03;4.18;;;17.80;70.60;;;;;;9183153;19;20022;-68
2023/09/05 02:05:18;;;;;;;7.45;3.92;;;17.80;70.80;;;;;;9184864;19;20101;-67
2023/09/05 02:08:24;;;;;;;7.13;3.83;;;17.80;70.80;;;;;;9186471;19;20020;-68
2023/09/05 02:11:34;;;;;;;7.80;4.18;;;17.80;70.90;;;;;;9183915;19;20026;-69
2023/09/05 02:14:45;;;;;;;8.43;4.93;;;17.70;71.00;;;;;;9184208;19;20046;-69
2023/09/05 02:17:55;;;;;;;11.77;4.28;;;17.70;71.00;;;;;;9184091;19;20018;-66
2023/09/05 02:21:06;;;;;;;8.10;3.90;;;17.70;71.00;;;;;;9182575;19;20006;-68
2023/09/05 02:24:14;;;;;;;5.40;3.53;;;17.70;71.10;;;;;;9183026;19;20014;-69
2023/09/05 02:27:21;;;;;;;7.45;3.70;;;17.70;71.20;;;;;;9177991;19;20019;-69
2023/09/05 02:30:29;;;;;;;8.38;4.38;;;17.70;71.30;;;;;;9182294;19;20078;-67
2023/09/05 02:33:36;;;;;;;7.72;4.20;;;17.70;71.40;;;;;;9182493;19;20025;-68
2023/09/05 02:36:44;;;;;;;8.65;4.05;;;17.70;71.70;;;;;;9181943;19;20018;-68
2023/09/05 02:39:49;;;;;;;7.50;4.57;;;17.60;71.30;;;;;;9181305;19;20026;-70
2023/09/05 02:43:00;;;;;;;6.53;4.25;;;17.60;71.40;;;;;;9180244;19;20014;-69
2023/09/05 02:46:06;;;;;;;7.65;4.53;;;17.60;71.50;;;;;;9179733;19;20011;-67
2023/09/05 02:49:14;;;;;;;6.85;4.07;;;17.60;71.50;;;;;;9183607;19;20018;-66
2023/09/05 02:52:21;;;;;;;6.90;4.13;;;17.60;71.50;;;;;;9183398;19;20010;-68
2023/09/05 02:55:34;;;;;;;12.43;4.10;;;17.60;71.60;;;;;;9181531;19;20014;-67
2023/09/05 02:58:42;;;;;;;9.00;4.38;;;17.50;71.60;;;;;;9181981;19;20398;-67
2023/09/05 03:01:50;;;;;;;8.45;4.35;;;17.50;71.70;;;;;;9181217;19;20021;-67
2023/09/05 03:04:55;;;;;;;5.90;4.40;;;17.50;71.70;;;;;;9182993;19;20011;-67
2023/09/05 03:08:03;;;;;;;9.82;4.35;;;17.50;71.80;;;;;;9182915;19;20058;-68
2023/09/05 03:11:08;;;;;;;7.30;4.45;;;17.40;71.80;;;;;;9183041;19;20019;-68
2023/09/05 03:14:18;;;;;;;6.30;4.50;;;17.40;71.80;;;;;;9180520;19;20010;-66
2023/09/05 03:17:23;;;;;;;7.30;5.00;;;17.40;72.00;;;;;;9181332;19;20010;-67
2023/09/05 03:20:31;;;;;;;6.70;4.57;;;17.40;71.90;;;;;;9180183;19;20018;-67
2023/09/05 03:23:36;;;;;;;8.13;3.80;;;17.40;71.90;;;;;;9178438;19;20026;-68
2023/09/05 03:26:44;;;;;;;5.97;4.30;;;17.40;72.10;;;;;;9176117;19;20022;-67
2023/09/05 03:29:52;;;;;;;8.50;5.25;;;17.40;72.10;;;;;;9179777;19;20484;-67
2023/09/05 03:32:59;;;;;;;6.78;4.35;;;17.40;72.20;;;;;;9180974;19;20018;-68
2023/09/05 03:36:09;;;;;;;10.10;4.82;;;17.30;72.10;;;;;;9180082;19;20965;-66
2023/09/05 03:39:16;;;;;;;9.68;5.50;;;17.40;72.20;;;;;;9180607;19;20491;-68
2023/09/05 03:42:22;;;;;;;14.88;5.25;;;17.30;72.20;;;;;;9180105;19;20048;-67
2023/09/05 03:45:33;;;;;;;7.40;5.25;;;17.30;72.30;;;;;;9181032;19;20030;-67
2023/09/05 03:48:39;;;;;;;8.25;4.95;;;17.30;72.30;;;;;;9182285;19;20011;-67
2023/09/05 03:51:46;;;;;;;11.25;4.75;;;17.30;72.40;;;;;;9180085;19;20014;-67
2023/09/05 03:54:52;;;;;;;10.73;4.50;;;17.30;72.40;;;;;;9180740;19;20015;-67
2023/09/05 03:57:59;;;;;;;13.75;5.13;;;17.30;72.40;;;;;;9180031;19;20472;-67
2023/09/05 04:01:14;;;;;;;9.40;5.10;;;17.20;72.40;;;;;;9180244;19;20354;-67
2023/09/05 04:04:21;;;;;;;8.20;5.28;;;17.20;72.50;;;;;;9178640;19;20026;-69
2023/09/05 04:07:28;;;;;;;10.25;4.95;;;17.20;72.50;;;;;;9178576;19;20089;-67
2023/09/05 04:10:36;;;;;;;6.50;5.25;;;17.20;72.60;;;;;;9179715;19;20046;-67
2023/09/05 04:13:44;;;;;;;7.80;5.38;;;17.20;72.60;;;;;;9178609;19;20017;-67
2023/09/05 04:16:54;;;;;;;9.75;5.18;;;17.20;72.70;;;;;;9179817;19;20519;-67
2023/09/05 04:20:00;;;;;;;7.35;5.20;;;17.10;72.80;;;;;;9178161;19;20503;-67
2023/09/05 04:23:08;;;;;;;9.30;5.18;;;17.10;72.70;;;;;;9177878;19;20025;-67
2023/09/05 04:26:14;;;;;;;8.15;5.03;;;17.10;72.80;;;;;;9173580;19;20074;-66
2023/09/05 04:29:22;;;;;;;10.05;5.30;;;17.10;72.80;;;;;;9178086;19;20030;-68
2023/09/05 04:32:30;;;;;;;10.80;5.13;;;17.10;73.50;;;;;;9178275;19;21290;-68
2023/09/05 04:35:40;;;;;;;8.68;4.85;;;17.10;73.00;;;;;;9177500;19;20006;-67
2023/09/05 04:38:48;;;;;;;8.18;5.65;;;17.10;73.00;;;;;;9175417;19;20015;-66
2023/09/05 04:41:56;;;;;;;8.85;5.05;;;17.00;73.00;;;;;;9178808;19;20488;-68
2023/09/05 04:45:01;;;;;;;8.38;5.57;;;17.00;73.00;;;;;;9179945;19;20029;-66
2023/09/05 04:48:11;;;;;;;6.57;4.82;;;17.00;73.00;;;;;;9181347;19;20018;-66
2023/09/05 04:51:17;;;;;;;7.10;4.85;;;17.00;73.10;;;;;;9187643;19;20026;-67
2023/09/05 04:54:24;;;;;;;6.10;4.50;;;17.00;73.10;;;;;;9186328;19;20014;-66
2023/09/05 04:57:31;;;;;;;11.73;5.45;;;16.90;73.10;;;;;;9187294;19;20045;-66
2023/09/05 05:00:38;;;;;;;11.35;5.05;;;16.90;73.20;;;;;;9186686;19;20029;-66
2023/09/05 05:03:46;;;;;;;6.65;4.65;;;16.90;73.20;;;;;;9183587;19;20018;-66
2023/09/05 05:06:54;;;;;;;18.52;5.25;;;16.90;73.30;;;;;;9185914;19;20361;-66
2023/09/05 05:09:59;;;;;;;11.38;5.40;;;16.90;73.30;;;;;;9188133;19;20824;-67
2023/09/05 05:13:06;;;;;;;8.00;5.20;;;16.80;73.30;;;;;;9186766;19;20014;-67
2023/09/05 05:16:12;;;;;;;8.65;4.93;;;16.80;73.40;;;;;;9188122;19;20015;-67
2023/09/05 05:19:21;;;;;;;8.68;5.03;;;16.90;73.50;;;;;;9186673;19;20003;-68
2023/09/05 05:22:27;;;;;;;9.15;4.45;;;16.80;73.60;;;;;;9185739;19;20024;-68
2023/09/05 05:25:35;;;;;;;9.85;5.32;;;16.80;73.60;;;;;;9186673;19;20029;-67
2023/09/05 05:28:41;;;;;;;6.75;4.85;;;16.70;73.60;;;;;;9180538;19;20010;-67
2023/09/05 05:31:49;;;;;;;9.50;4.93;;;16.80;73.70;;;;;;9186042;19;20018;-67
2023/09/05 05:34:57;;;;;;;7.82;5.35;;;16.80;73.70;;;;;;9184924;19;20011;-67
2023/09/05 05:38:04;;;;;;;8.48;4.70;;;16.80;73.90;;;;;;9183171;19;20025;-69
2023/09/05 05:41:10;;;;;;;8.95;4.75;;;16.80;73.90;;;;;;9181352;19;20022;-66
2023/09/05 05:44:17;;;;;;;14.30;5.00;;;16.80;74.00;;;;;;9180760;19;20021;-67
2023/09/05 05:47:24;;;;;;;9.10;5.25;;;16.80;74.00;;;;;;9183141;19;20014;-67
2023/09/05 05:50:34;;;;;;;7.38;5.07;;;16.80;74.00;;;;;;9165723;19;20380;-67
2023/09/05 05:53:39;;;;;;;6.07;4.40;;;16.80;74.20;;;;;;9166117;19;20018;-67
2023/09/05 05:56:47;;;;;;;7.65;4.75;;;16.80;74.10;;;;;;9168211;19;20017;-67
2023/09/05 05:59:52;;;;;;;7.30;5.20;;;16.90;74.20;;;;;;9168943;19;20018;-67
2023/09/05 06:03:00;;;;;;;10.13;4.82;;;16.90;74.30;;;;;;9169432;19;20018;-67
2023/09/05 06:06:08;;;;;;;14.05;4.88;;;16.90;74.40;;;;;;9169145;19;20024;-67
2023/09/05 06:09:15;;;;;;;8.98;5.30;;;17.00;74.70;;;;;;9169458;19;20014;-66
2023/09/05 06:12:20;;;;;;;7.22;5.00;;;17.00;74.70;;;;;;9171992;19;20018;-67
2023/09/05 06:15:28;;;;;;;12.90;5.68;;;17.20;75.00;;;;;;9185192;19;20023;-69
2023/09/05 06:18:33;;;;;;;10.82;4.80;;;17.30;75.10;;;;;;9183301;19;20028;-68
2023/09/05 06:21:46;;;;;;;6.32;4.43;;;17.50;75.20;;;;;;9183091;19;20007;-69
2023/09/05 06:24:52;;;;;;;11.90;4.75;;;17.60;75.30;;;;;;9177315;19;20018;-67
2023/09/05 06:28:00;;;;;;;7.40;4.38;;;17.90;75.20;;;;;;9175860;19;20479;-70
2023/09/05 06:31:06;;;;;;;9.68;4.10;;;18.10;75.30;;;;;;9175473;19;20021;-67
2023/09/05 06:34:14;;;;;;;7.80;4.25;;;18.30;75.20;;;;;;9178449;19;20942;-68
2023/09/05 06:37:28;;;;;;;10.60;4.88;;;18.60;75.10;;;;;;9172741;19;20019;-71
2023/09/05 06:40:36;;;;;;;11.57;4.22;;;18.80;75.10;;;;;;9181385;19;20010;-69
2023/09/05 06:43:41;;;;;;;9.38;4.50;;;19.10;74.90;;;;;;9181011;19;20554;-72
2023/09/05 06:46:48;;;;;;;8.00;4.22;;;19.30;74.70;;;;;;9183305;19;20484;-68
2023/09/05 06:49:54;;;;;;;7.28;4.22;;;19.60;74.60;;;;;;9180083;19;20018;-69
2023/09/05 06:53:03;;;;;;;6.47;3.80;;;19.80;74.40;;;;;;9181163;19;20010;-69
2023/09/05 06:56:09;;;;;;;4.97;3.40;;;20.10;74.40;;;;;;9182162;19;20014;-69
2023/09/05 06:59:19;;;;;;;5.70;4.22;;;20.40;74.20;;;;;;9183058;19;20022;-70
2023/09/05 07:02:24;;;;;;;6.97;3.83;;;20.60;74.00;;;;;;9183062;19;20045;-70
2023/09/05 07:05:32;;;;;;;5.55;3.95;;;20.90;74.40;;;;;;9180081;19;20007;-71
2023/09/05 07:08:40;;;;;;;9.05;4.18;;;21.20;73.60;;;;;;9177723;19;20010;-69
2023/09/05 07:11:48;;;;;;;7.82;3.83;;;21.40;73.30;;;;;;9174507;19;20018;-69
2023/09/05 07:14:54;;;;;;;5.93;3.58;;;21.60;73.00;;;;;;9175063;19;20077;-70
2023/09/05 07:18:01;;;;;;;5.30;3.60;;;21.90;72.90;;;;;;9179630;19;20010;-70
2023/09/05 07:21:07;;;;;;;6.80;3.50;;;22.20;72.70;;;;;;9179891;19;20714;-71
2023/09/05 07:24:18;;;;;;;10.90;3.92;;;22.40;72.40;;;;;;9178763;19;20019;-69
2023/09/05 07:27:23;;;;;;;7.53;2.80;;;22.70;72.00;;;;;;9169188;19;20100;-71
2023/09/05 07:30:31;;;;;;;5.47;3.08;;;22.90;71.90;;;;;;9171190;19;20029;-69
2023/09/05 07:33:37;;;;;;;7.45;3.92;;;23.00;71.50;;;;;;9174737;19;20010;-70
2023/09/05 07:36:45;;;;;;;8.40;3.22;;;23.10;71.30;;;;;;9173494;19;20011;-70
2023/09/05 07:39:54;;;;;;;6.82;3.30;;;23.20;71.00;;;;;;9176956;19;20022;-68
2023/09/05 07:43:03;;;;;;;5.63;3.17;;;23.40;70.80;;;;;;9175928;19;20030;-70
2023/09/05 07:46:11;;;;;;;3.67;2.70;;;23.40;70.70;;;;;;9178539;19;20026;-68
2023/09/05 07:49:20;;;;;;;7.53;2.85;;;23.40;70.60;;;;;;9181215;19;20018;-70
2023/09/05 07:52:25;;;;;;;5.45;2.67;;;23.50;70.40;;;;;;9180227;19;20022;-70
2023/09/05 07:55:35;;;;;;;3.72;2.25;;;23.60;70.30;;;;;;9179899;19;20606;-68
2023/09/05 07:58:41;;;;;;;5.13;2.38;;;23.60;70.10;;;;;;9178584;19;20312;-70
2023/09/05 08:01:48;;;;;;;3.88;1.83;;;23.60;70.00;;;;;;9179023;19;20010;-68
2023/09/05 08:04:54;;;;;;;3.20;1.80;;;23.70;70.00;;;;;;9179129;19;20015;-68
2023/09/05 08:08:01;;;;;;;5.53;1.83;;;23.70;69.90;;;;;;9180429;19;20372;-67
2023/09/05 08:11:10;;;;;;;4.32;2.13;;;23.70;69.80;;;;;;9178698;19;20108;-70
2023/09/05 08:14:17;;;;;;;2.00;1.65;;;23.70;69.70;;;;;;9176481;19;20371;-69
2023/09/05 08:17:22;;;;;;;4.07;2.08;;;23.80;69.80;;;;;;9178365;19;20010;-70
2023/09/05 08:20:30;;;;;;;1.58;1.20;;;;;;;;;;9179969;19;20021;-70
2023/09/05 08:23:35;;;;;;;3.80;1.70;;;23.90;69.10;;;;;;9173727;19;20034;-69
2023/09/05 08:26:45;;;;;;;2.95;1.60;;;24.00;69.60;;;;;;9171396;19;20015;-68
2023/09/05 08:29:50;;;;;;;2.83;1.23;;;24.20;69.30;;;;;;9172495;19;20018;-68
2023/09/05 08:32:58;;;;;;;3.50;1.67;;;24.30;69.20;;;;;;9168903;19;20634;-70
2023/09/05 08:36:09;;;;;;;2.55;1.55;;;24.50;69.00;;;;;;9176228;19;20025;-69
2023/09/05 08:39:16;;;;;;;4.38;1.33;;;24.60;68.60;;;;;;9174952;19;20017;-69
2023/09/05 08:42:24;;;;;;;3.22;1.80;;;24.80;68.40;;;;;;9177292;19;20015;-72
2023/09/05 08:45:33;;;;;;;3.15;1.70;;;25.00;68.80;;;;;;9176785;19;20032;-72
2023/09/05 08:48:39;;;;;;;4.15;1.52;;;25.20;67.90;;;;;;9177595;19;20476;-70
2023/09/05 08:52:05;;;;;;;4.10;1.30;;;25.40;67.80;;;;;;9177292;19;20018;-71
2023/09/05 08:55:11;;;;;;;4.32;1.77;;;25.70;67.60;;;;;;9178976;19;20364;-70
2023/09/05 08:58:21;;;;;;;2.30;1.35;;;26.00;67.50;;;;;;9176353;19;20058;-71
2023/09/05 09:01:29;;;;;;;3.85;1.45;;;26.20;66.90;;;;;;9177885;19;20481;-70
2023/09/05 09:04:51;;;;;;;3.63;1.75;;;26.50;66.80;;;;;;9178121;19;20007;-72
2023/09/05 09:07:57;;;;;;;3.28;1.50;;;26.70;66.20;;;;;;9177519;19;20019;-71
2023/09/05 09:11:08;;;;;;;1.75;1.20;;;27.00;66.10;;;;;;9178108;19;20495;-71
2023/09/05 09:14:25;;;;;;;2.42;1.35;;;27.20;65.60;;;;;;9176641;19;20010;-70
2023/09/05 09:17:32;;;;;;;2.97;1.73;;;27.50;65.30;;;;;;9175550;19;20015;-72
2023/09/05 09:20:44;;;;;;;8.75;2.60;;;27.60;65.30;;;;;;9176392;19;20025;-72
2023/09/05 09:23:51;;;;;;;2.95;1.45;;;27.80;64.80;;;;;;9177915;19;20014;-73
2023/09/05 09:26:57;;;;;;;7.95;1.80;;;28.00;64.60;;;;;;9159613;19;20051;-71
2023/09/05 09:30:09;;;;;;;3.03;1.55;;;28.20;64.40;;;;;;9163406;19;20021;-72
2023/09/05 09:33:17;;;;;;;8.73;1.75;;;28.40;64.00;;;;;;9164482;19;20130;-72
2023/09/05 09:36:24;;;;;;;3.05;1.70;;;28.50;63.70;;;;;;9166595;19;20037;-70
2023/09/05 09:39:32;;;;;;;3.58;1.70;;;28.70;63.50;;;;;;9170244;19;20010;-72
2023/09/05 09:42:41;;;;;;;4.45;1.52;;;28.80;63.20;;;;;;9171929;19;20026;-72
2023/09/05 09:45:49;;;;;;;3.00;1.20;;;29.00;63.70;;;;;;9167296;19;20014;-72
2023/09/05 09:49:00;;;;;;;2.22;1.58;;;29.10;62.50;;;;;;9169819;19;20478;-73
2023/09/05 09:52:07;;;;;;;2.22;1.42;;;29.30;62.40;;;;;;9171593;19;20015;-72
2023/09/05 09:55:15;;;;;;;3.60;1.23;;;29.50;62.10;;;;;;9173932;19;20471;-73
2023/09/05 09:58:22;;;;;;;6.07;1.83;;;29.60;61.80;;;;;;9170783;19;20930;-71
2023/09/05 10:01:33;;;;;;;4.05;1.13;;;29.80;61.40;;;;;;9173431;19;20015;-71
2023/09/05 10:04:43;;;;;;;2.15;1.23;;;29.90;61.70;;;;;;9171069;19;20018;-72
2023/09/05 10:07:50;;;;;;;2.65;1.33;;;30.00;60.90;;;;;;9170446;19;20014;-73
2023/09/05 10:10:58;;;;;;;5.07;1.70;;;30.20;60.70;;;;;;9172122;19;20636;-71
2023/09/05 10:14:05;;;;;;;1.60;1.10;;;30.30;60.60;;;;;;9169917;19;20015;-71
2023/09/05 10:17:16;;;;;;;4.28;1.42;;;30.50;60.40;;;;;;9166938;19;20030;-70
2023/09/05 10:20:25;;;;;;;1.60;1.05;;;30.60;60.10;;;;;;9169742;19;20064;-72
2023/09/05 10:23:36;;;;;;;1.65;1.20;;;30.60;59.90;;;;;;9170273;19;20010;-72
2023/09/05 10:26:41;;;;;;;3.00;1.35;;;30.80;59.80;;;;;;9163936;19;20035;-73
2023/09/05 10:29:50;;;;;;;2.78;1.58;;;30.80;59.50;;;;;;9172032;19;20022;-71
2023/09/05 10:33:00;;;;;;;2.70;1.23;;;31.00;59.40;;;;;;9171214;19;20072;-71
2023/09/05 10:36:08;;;;;;;5.75;1.35;;;31.10;59.00;;;;;;9170109;19;20021;-72
2023/09/05 10:39:22;;;;;;;5.43;1.40;;;31.20;59.00;;;;;;9171064;19;20026;-70
2023/09/05 10:42:31;;;;;;;2.67;1.55;;;31.30;58.50;;;;;;9168387;19;20015;-71
2023/09/05 10:45:38;;;;;;;5.55;1.20;;;31.40;58.50;;;;;;9167981;19;20066;-72
2023/09/05 10:48:48;;;;;;;2.40;1.70;;;31.50;58.40;;;;;;9170158;19;20014;-72
2023/09/05 10:52:17;;;;;;;2.05;1.08;;;31.60;57.90;;;;;;9168411;19;20048;-71
2023/09/05 10:55:44;;;;;;;2.50;1.10;;;31.60;57.50;;;;;;9167796;19;20442;-71
2023/09/05 10:58:54;;;;;;;3.47;1.17;;;31.70;57.50;;;;;;9171443;19;20013;-70
2023/09/05 11:02:06;;;;;;;17.60;1.50;;;31.70;57.50;;;;;;9177551;19;20010;-70
2023/09/05 11:05:17;;;;;;;3.17;1.08;;;31.80;57.40;;;;;;9174882;19;20704;-68
2023/09/05 11:08:27;;;;;;;5.53;1.05;;;31.90;57.00;;;;;;9178243;19;20015;-70
2023/09/05 11:11:35;;;;;;;5.72;1.27;;;31.90;57.00;;;;;;9177445;19;20814;-68
2023/09/05 11:14:43;;;;;;;3.10;1.50;;;32.00;56.90;;;;;;9176891;19;20010;-69
2023/09/05 11:18:01;;;;;;;5.18;1.10;;;32.10;57.30;;;;;;9176479;19;20517;-71
2023/09/05 11:21:22;;;;;;;2.65;1.20;;;32.20;56.20;;;;;;9176174;19;20014;-69
2023/09/05 11:24:32;;;;;;;1.48;1.23;;;32.30;56.20;;;;;;9175756;19;20368;-69
2023/09/05 11:27:40;;;;;;;1.38;1.00;;;32.40;56.20;;;;;;9169272;19;20017;-68
2023/09/05 11:30:47;;;;;;;4.90;1.25;;;32.30;56.10;;;;;;9177450;19;20018;-69
2023/09/05 11:33:55;;;;;;;6.05;1.15;;;32.40;56.00;;;;;;9177016;19;20006;-68
2023/09/05 11:37:03;;;;;;;2.85;1.60;;;32.40;55.90;;;;;;9173775;19;20138;-69
2023/09/05 11:40:20;;;;;;;3.42;1.33;;;32.50;55.90;;;;;;9180395;19;20019;-70
2023/09/05 11:43:27;;;;;;;4.47;1.23;;;32.70;55.70;;;;;;9176426;19;20022;-70
2023/09/05 11:46:40;;;;;;;2.38;1.17;;;32.70;55.80;;;;;;9174595;19;20010;-68
2023/09/05 11:49:46;;;;;;;2.05;1.15;;;32.80;55.90;;;;;;9174456;19;20011;-68
2023/09/05 11:52:59;;;;;;;6.70;1.10;;;32.90;54.80;;;;;;9176768;19;20010;-69
2023/09/05 11:56:04;;;;;;;3.28;1.00;;;32.90;55.30;;;;;;9175848;19;20034;-69
2023/09/05 11:59:12;;;;;;;2.85;1.40;;;33.40;57.10;;;;;;9171560;19;20017;-70
2023/09/05 12:02:20;;;;;;;4.70;1.40;;;33.00;55.00;;;;;;9173774;19;20023;-70
2023/09/05 12:05:28;;;;;;;2.90;1.55;;;33.10;54.80;;;;;;9177319;19;20593;-73
2023/09/05 12:08:37;;;;;;;3.72;1.65;;;33.10;54.80;;;;;;9175751;19;20014;-69
2023/09/05 12:11:44;;;;;;;2.20;1.20;;;33.10;54.50;;;;;;9174057;19;20010;-70
2023/09/05 12:14:55;;;;;;;3.20;2.10;;;33.10;54.50;;;;;;9175510;19;20053;-71
2023/09/05 12:18:05;;;;;;;1.70;1.50;;;33.20;54.20;;;;;;9174110;19;20010;-71
2023/09/05 12:21:11;;;;;;;3.17;1.25;;;33.20;54.20;;;;;;9175534;19;20061;-67
2023/09/05 12:24:24;;;;;;;9.20;1.40;;;33.30;54.30;;;;;;9177975;19;20018;-69
2023/09/05 12:27:30;;;;;;;4.57;1.45;;;33.30;54.00;;;;;;9164895;19;20025;-68
2023/09/05 12:30:37;;;;;;;4.70;2.13;;;33.30;54.00;;;;;;9171946;19;20483;-69
2023/09/05 12:33:43;;;;;;;2.45;1.27;;;33.30;54.00;;;;;;9171331;19;20357;-69
2023/09/05 12:36:51;;;;;;;4.68;1.20;;;33.40;53.80;;;;;;9174629;19;20014;-68
2023/09/05 12:40:00;;;;;;;3.13;1.20;;;33.40;53.60;;;;;;9174457;19;20062;-69
2023/09/05 12:43:08;;;;;;;4.53;1.25;;;33.50;53.60;;;;;;9174764;19;20018;-69
2023/09/05 12:46:13;;;;;;;3.78;1.25;;;33.50;53.40;;;;;;9174367;19;20023;-70
2023/09/05 12:49:21;;;;;;;2.10;1.10;;;33.50;54.10;;;;;;9173434;19;20476;-70
2023/09/05 12:52:29;;;;;;;2.67;1.13;;;33.50;53.20;;;;;;9171478;19;20363;-69
2023/09/05 12:55:41;;;;;;;1.42;1.00;;;33.50;53.10;;;;;;9169479;19;20007;-70
2023/09/05 12:58:46;;;;;;;2.08;1.17;;;33.60;53.00;;;;;;9169672;19;20010;-67
2023/09/05 13:01:54;;;;;;;1.40;0.90;;;33.50;52.90;;;;;;9177225;19;20017;-66
2023/09/05 13:04:59;;;;;;;3.55;1.30;;;33.60;52.80;;;;;;9171435;19;20015;-67
2023/09/05 13:08:09;;;;;;;3.33;1.20;;;33.50;52.80;;;;;;9171091;19;20010;-66
2023/09/05 13:11:18;;;;;;;1.77;1.08;;;33.60;52.80;;;;;;9182635;19;20021;-66
2023/09/05 13:14:25;;;;;;;1.52;1.00;;;33.50;52.60;;;;;;9183580;19;20019;-66
2023/09/05 13:17:32;;;;;;;1.15;1.02;;;33.60;52.60;;;;;;9182034;19;20019;-65
2023/09/05 13:20:39;;;;;;;1.45;1.25;;;33.50;52.60;;;;;;9182010;19;20015;-66
2023/09/05 13:23:44;;;;;;;5.15;1.45;;;33.60;52.70;;;;;;9181034;19;20470;-67
2023/09/05 13:26:56;;;;;;;4.07;1.10;;;33.60;52.60;;;;;;9172008;19;20021;-67
2023/09/05 13:30:04;;;;;;;5.22;1.80;;;33.50;52.80;;;;;;9181159;19;20007;-67
2023/09/05 13:33:12;;;;;;;2.47;1.48;;;33.50;52.60;;;;;;9179593;19;20022;-67
2023/09/05 13:36:18;;;;;;;4.47;1.40;;;33.50;52.60;;;;;;9181706;19;20085;-67
2023/09/05 13:39:26;;;;;;;2.70;1.50;;;33.50;52.60;;;;;;9177133;19;20353;-67
2023/09/05 13:42:36;;;;;;;4.20;1.60;;;33.40;52.50;;;;;;9181546;19;20341;-67
2023/09/05 13:45:43;;;;;;;5.32;1.58;;;33.50;52.50;;;;;;9181279;19;20015;-68
2023/09/05 13:48:50;;;;;;;3.97;1.15;;;33.30;52.50;;;;;;9174164;19;20038;-68
2023/09/05 13:51:58;;;;;;;2.53;1.38;;;33.30;52.40;;;;;;9180997;19;20471;-67
2023/09/05 13:55:03;;;;;;;5.40;1.90;;;33.30;52.40;;;;;;9175397;19;20025;-70
2023/09/05 13:58:13;;;;;;;1.63;1.20;;;33.30;55.00;;;;;;9176471;19;20494;-71
2023/09/05 14:01:18;;;;;;;2.47;1.33;;;33.30;52.50;;;;;;9177782;19;20014;-71
2023/09/05 14:04:26;;;;;;;3.92;2.03;;;33.30;52.70;;;;;;9176799;19;20011;-73
2023/09/05 14:07:32;;;;;;;1.92;1.30;;;33.20;52.60;;;;;;9174860;19;20015;-70
2023/09/05 14:10:41;;;;;;;8.30;1.50;;;33.20;52.50;;;;;;9174668;19;20365;-70
2023/09/05 14:13:49;;;;;;;3.22;1.08;;;33.30;52.50;;;;;;9174453;19;20074;-67
2023/09/05 14:16:56;;;;;;;1.80;1.08;;;33.20;52.30;;;;;;9174442;19;20483;-69
2023/09/05 14:20:02;;;;;;;2.38;1.48;;;33.20;52.50;;;;;;9175348;19;20030;-71
2023/09/05 14:23:09;;;;;;;4.45;1.40;;;33.10;52.40;;;;;;9171865;19;20368;-70
2023/09/05 14:26:15;;;;;;;1.85;1.17;;;33.10;52.50;;;;;;9171375;19;20872;-68
2023/09/05 14:29:25;;;;;;;2.83;1.40;;;33.10;52.40;;;;;;9178172;19;20014;-66
2023/09/05 14:32:30;;;;;;;4.28;1.30;;;33.10;52.40;;;;;;9177941;19;20049;-71
2023/09/05 14:35:37;;;;;;;2.47;1.20;;;33.00;52.40;;;;;;9175506;19;20487;-69
2023/09/05 14:38:43;;;;;;;2.03;1.23;;;33.00;52.30;;;;;;9176286;19;20018;-69
2023/09/05 14:41:50;;;;;;;1.65;1.35;;;32.90;52.30;;;;;;9181287;19;20019;-69
2023/09/05 14:44:58;;;;;;;4.88;1.70;;;32.90;52.30;;;;;;9180017;19;20030;-68
2023/09/05 14:48:07;;;;;;;2.17;1.10;;;32.80;52.20;;;;;;9178828;19;20022;-68
2023/09/05 14:51:13;;;;;;;1.73;1.20;;;32.80;52.40;;;;;;9179399;19;20374;-68
2023/09/05 14:54:21;;;;;;;2.60;1.27;;;32.80;52.50;;;;;;9178697;19;20011;-70
2023/09/05 14:57:26;;;;;;;3.92;1.30;;;32.70;52.60;;;;;;9178868;19;20026;-71
2023/09/05 15:00:36;;;;;;;2.97;1.15;;;32.70;52.70;;;;;;9180987;19;20015;-69
2023/09/05 15:03:42;;;;;;;4.40;1.30;;;32.60;52.80;;;;;;9177551;19;20020;-69
2023/09/05 15:06:50;;;;;;;5.50;1.70;;;32.70;53.60;;;;;;9180835;19;20022;-70
2023/09/05 15:09:55;;;;;;;7.40;1.80;;;32.50;52.80;;;;;;9173946;19;20048;-69
2023/09/05 15:13:03;;;;;;;4.90;2.03;;;32.40;52.80;;;;;;9175022;19;20490;-70
2023/09/05 15:16:11;;;;;;;4.22;1.40;;;32.40;52.80;;;;;;9175367;19;20692;-69
2023/09/05 15:19:18;;;;;;;2.33;1.42;;;32.30;52.80;;;;;;9169126;19;20014;-68
2023/09/05 15:22:24;;;;;;;1.83;1.27;;;32.30;52.90;;;;;;9175066;19;20015;-67
2023/09/05 15:25:32;;;;;;;3.97;1.23;;;32.30;53.00;;;;;;9173450;19;20086;-68
2023/09/05 15:28:37;;;;;;;10.32;1.80;;;32.20;53.10;;;;;;9173720;19;20054;-67
2023/09/05 15:31:47;;;;;;;5.03;1.70;;;32.20;53.20;;;;;;9177335;19;20014;-68
2023/09/05 15:34:55;;;;;;;2.50;1.33;;;32.10;53.10;;;;;;9176857;19;20023;-67
2023/09/05 15:38:05;;;;;;;6.75;1.40;;;32.20;53.60;;;;;;9170619;19;20015;-67
2023/09/05 15:41:11;;;;;;;2.30;1.45;;;32.10;54.70;;;;;;9173171;19;20021;-68
2023/09/05 15:44:18;;;;;;;2.20;1.30;;;32.40;53.70;;;;;;9174193;19;20018;-68
2023/09/05 15:47:27;;;;;;;3.13;1.40;;;32.00;53.30;;;;;;9171182;19;20022;-70
2023/09/05 15:50:34;;;;;;;3.83;1.45;;;31.90;53.50;;;;;;9168060;19;20381;-68
2023/09/05 15:53:39;;;;;;;3.58;1.40;;;31.80;53.60;;;;;;9165373;19;20025;-69
2023/09/05 15:56:47;;;;;;;9.35;1.88;;;31.80;54.10;;;;;;9170215;19;20011;-69
2023/09/05 15:59:52;;;;;;;4.63;1.45;;;31.80;54.90;;;;;;9173780;19;20463;-68
2023/09/05 16:03:03;;;;;;;3.33;1.20;;;;;;;;;;9173815;19;20010;-70
2023/09/05 16:06:10;;;;;;;8.32;1.45;;;31.70;55.00;;;;;;9175131;19;20208;-70
2023/09/05 16:09:19;;;;;;;3.30;1.45;;;31.60;53.70;;;;;;9174434;19;20022;-70
2023/09/05 16:12:25;;;;;;;4.03;1.15;;;31.60;53.80;;;;;;9175283;19;20018;-69
2023/09/05 16:15:32;;;;;;;2.05;1.67;;;31.50;53.80;;;;;;9175477;19;20014;-70
2023/09/05 16:18:41;;;;;;;6.00;1.65;;;31.50;54.00;;;;;;9173806;19;20074;-69